Time;durP1;ratioP1;P1;durP2;ratioP2;P2;SDS_P1;SDS_P2;PMS_P1;PMS_P2;Temp;Humidity;BMP_temperature;BMP_pressure;BME280_temperature;BME280_humidity;BME280_pressure;Samples;Min_cycle;Max_cycle;Signal;HPM_P1;HPM_P2
2020/12/02 00:01:22;;;;;;;143.30;47.15;;;;;;;-0.68;100.00;98113.75;5014789;28;20476;-85
2020/12/02 00:03:54;;;;;;;114.55;38.88;;;;;;;-0.72;100.00;98105.00;4998491;28;20103;-85
2020/12/02 00:06:20;;;;;;;107.23;34.73;;;;;;;-0.70;100.00;98097.09;4998937;28;20389;-86
2020/12/02 00:08:53;;;;;;;109.22;34.80;;;;;;;-0.70;100.00;98111.09;5014737;28;20308;-85
2020/12/02 00:11:20;;;;;;;104.35;33.97;;;;;;;-0.71;100.00;98119.03;4998843;28;20032;-85
2020/12/02 00:13:48;;;;;;;108.22;33.92;;;;;;;-0.69;99.98;98118.13;5014930;28;20025;-86
2020/12/02 00:16:24;;;;;;;110.30;34.53;;;;;;;-0.75;100.00;98115.53;4998158;28;20026;-86
2020/12/02 00:18:54;;;;;;;114.07;33.92;;;;;;;-0.74;100.00;98100.66;5015053;28;20032;-85
2020/12/02 00:21:21;;;;;;;96.47;28.50;;;;;;;-0.68;100.00;98114.56;4998180;28;20568;-85
2020/12/02 00:23:47;;;;;;;90.43;29.95;;;;;;;-0.82;100.00;98108.59;4998241;28;20022;-85
2020/12/02 00:26:15;;;;;;;106.10;33.88;;;;;;;-0.80;100.00;98121.72;4998131;28;20025;-85
2020/12/02 00:28:41;;;;;;;105.80;33.85;;;;;;;-0.79;100.00;98118.19;4998299;28;20045;-86
2020/12/02 00:31:07;;;;;;;104.03;34.60;;;;;;;-0.68;100.00;98114.56;5014403;28;20040;-85
2020/12/02 00:33:32;;;;;;;96.05;32.92;;;;;;;-0.65;99.71;98109.34;4998803;28;20481;-85
2020/12/02 00:35:58;;;;;;;79.63;29.88;;;;;;;-0.58;97.73;98116.25;4997838;28;20033;-84
2020/12/02 00:38:24;;;;;;;87.53;31.90;;;;;;;-0.69;97.54;98110.22;4997874;28;20033;-86
2020/12/02 00:40:51;;;;;;;90.50;32.30;;;;;;;-0.73;97.09;98095.38;4997920;28;20044;-86
2020/12/02 00:43:28;;;;;;;89.68;32.60;;;;;;;-0.67;97.26;98103.19;4997781;28;20033;-86
2020/12/02 00:45:56;;;;;;;94.75;31.25;;;;;;;-0.83;98.79;98096.34;4997865;28;20026;-85
2020/12/02 00:48:24;;;;;;;95.97;32.28;;;;;;;-0.92;99.73;98088.53;4990626;28;20119;-85
2020/12/02 00:50:50;;;;;;;91.88;29.42;;;;;;;-1.02;100.00;98083.38;4998248;28;20473;-85
2020/12/02 00:53:21;;;;;;;90.82;31.13;;;;;;;-0.94;100.00;98090.31;4997724;28;20382;-85
2020/12/02 00:55:48;;;;;;;87.47;27.63;;;;;;;-0.88;100.00;98094.63;4998338;28;20029;-85
2020/12/02 00:58:42;;;;;;;88.45;28.58;;;;;;;-0.83;99.89;98098.13;5014216;28;20520;-85
2020/12/02 01:01:10;;;;;;;84.97;29.00;;;;;;;-0.96;100.00;98089.47;4997769;28;20485;-85
2020/12/02 01:03:35;;;;;;;86.70;28.98;;;;;;;-0.96;100.00;98088.59;4998283;28;20033;-84
2020/12/02 01:06:05;;;;;;;92.85;31.15;;;;;;;-0.87;100.00;98091.13;4997715;28;20120;-85
2020/12/02 01:08:36;;;;;;;90.60;29.02;;;;;;;-0.83;100.00;98092.88;4998061;28;20057;-85
2020/12/02 01:11:24;;;;;;;98.50;29.60;;;;;;;-0.82;100.00;98099.84;5014429;28;20114;-85
2020/12/02 01:13:57;;;;;;;88.50;29.10;;;;;;;-0.87;99.22;98088.50;4997686;28;20037;-85
2020/12/02 01:16:30;;;;;;;100.75;32.28;;;;;;;-0.96;99.69;98096.47;4997558;28;20033;-85
2020/12/02 01:18:56;;;;;;;89.18;27.15;;;;;;;-0.91;99.82;98092.91;4998063;28;20061;-85
2020/12/02 01:21:39;;;;;;;96.22;29.40;;;;;;;-0.99;100.00;98086.00;5014570;28;20040;-85
2020/12/02 01:24:17;;;;;;;82.18;28.77;;;;;;;-0.98;99.79;98096.47;4998178;28;20064;-84
2020/12/02 01:26:46;;;;;;;89.90;28.55;;;;;;;-1.04;100.00;98088.63;4997683;28;20527;-85
2020/12/02 01:29:19;;;;;;;87.18;27.85;;;;;;;-1.05;99.77;98094.78;4997565;28;20064;-86
2020/12/02 01:31:47;;;;;;;86.03;28.80;;;;;;;-1.17;99.58;98089.63;4997904;28;20025;-85
2020/12/02 01:34:14;;;;;;;82.63;28.23;;;;;;;-1.23;99.97;98080.03;4997464;28;20046;-85
2020/12/02 01:37:07;;;;;;;88.50;29.15;;;;;;;-1.14;100.00;98089.59;4998173;28;20033;-84
2020/12/02 01:39:37;;;;;;;89.05;29.48;;;;;;;-1.21;100.00;98085.28;5014249;28;20100;-84
2020/12/02 01:42:04;;;;;;;82.25;27.13;;;;;;;-1.14;100.00;98095.69;5013883;28;20026;-83
2020/12/02 01:44:30;;;;;;;69.95;25.42;;;;;;;-1.08;99.52;98086.94;4997653;28;20497;-86
2020/12/02 01:47:01;;;;;;;71.10;25.52;;;;;;;-1.12;98.73;98090.47;4997886;28;20025;-84
2020/12/02 01:49:38;;;;;;;63.47;24.27;;;;;;;-1.11;98.94;98089.59;5013867;28;20025;-84
2020/12/02 01:52:46;;;;;;;54.00;20.25;;;;;;;-1.22;98.03;98092.28;4997505;28;20052;-85
2020/12/02 01:55:16;;;;;;;56.50;19.77;;;;;;;-1.29;98.09;98079.22;4938745;28;20126;-84
2020/12/02 01:57:41;;;;;;;55.63;21.00;;;;;;;-1.26;97.74;98084.44;4937568;29;20023;-86
2020/12/02 02:00:15;;;;;;;60.30;22.70;;;;;;;-1.34;97.41;98083.59;4979032;28;20044;-85
2020/12/02 02:03:06;;;;;;;49.67;20.90;;;;;;;-1.35;98.22;98079.22;4997968;28;20037;-86
2020/12/02 02:05:59;;;;;;;54.40;19.50;;;;;;;-1.42;99.68;98082.81;4993143;28;20037;-85
2020/12/02 02:08:30;;;;;;;47.10;18.23;;;;;;;-1.47;98.26;98074.94;5000798;28;20064;-84
2020/12/02 02:10:57;;;;;;;49.92;18.40;;;;;;;-1.48;97.44;98082.84;5000676;28;20033;-85
2020/12/02 02:13:47;;;;;;;44.25;19.17;;;;;;;-1.43;97.24;98081.03;5016918;28;20116;-86
2020/12/02 02:16:26;;;;;;;44.20;18.52;;;;;;;-1.36;96.07;98077.50;5016928;28;20061;-84
2020/12/02 02:18:52;;;;;;;45.30;17.88;;;;;;;-1.23;96.66;98079.19;5000696;28;20022;-85
2020/12/02 02:21:30;;;;;;;43.83;18.27;;;;;;;-1.20;96.73;98084.41;5000485;28;20037;-85
2020/12/02 02:23:55;;;;;;;53.65;19.05;;;;;;;-1.21;95.93;98078.28;5000765;28;20470;-85
2020/12/02 02:26:26;;;;;;;62.10;25.45;;;;;;;-1.10;95.16;98092.19;4999909;28;20144;-84
2020/12/02 02:29:07;;;;;;;57.63;23.30;;;;;;;-1.16;96.02;98088.72;5016838;28;20504;-85
2020/12/02 02:31:52;;;;;;;51.15;20.27;;;;;;;-1.25;96.76;98096.66;5000098;28;20112;-85
2020/12/02 02:34:18;;;;;;;52.90;20.10;;;;;;;-1.24;96.90;98093.16;5016471;28;20041;-85
2020/12/02 02:36:44;;;;;;;55.70;21.88;;;;;;;-1.25;96.67;98092.28;5000831;28;20477;-85
2020/12/02 02:39:10;;;;;;;61.35;22.33;;;;;;;-1.20;96.99;98097.53;5000367;28;20029;-85
2020/12/02 02:41:36;;;;;;;66.07;23.73;;;;;;;-1.15;97.00;98103.59;5000404;28;20108;-85
2020/12/02 02:44:02;;;;;;;61.08;23.15;;;;;;;-1.13;97.30;98091.31;5000576;28;20084;-85
2020/12/02 02:46:28;;;;;;;55.17;22.63;;;;;;;-1.22;97.67;98091.41;5000232;28;20095;-85
2020/12/02 02:48:53;;;;;;;60.28;23.15;;;;;;;-1.21;98.04;98095.78;5000280;28;20405;-85
2020/12/02 02:51:19;;;;;;;59.85;24.15;;;;;;;-1.12;97.87;98108.81;5000121;28;20029;-85
2020/12/02 02:53:45;;;;;;;62.80;24.95;;;;;;;-1.15;98.34;98095.72;5000630;28;20029;-86
2020/12/02 02:56:12;;;;;;;73.75;28.15;;;;;;;-1.15;97.82;98103.59;5016683;28;20416;-85
2020/12/02 02:58:38;;;;;;;61.45;26.17;;;;;;;-1.08;97.20;98100.91;4999990;28;20053;-85
2020/12/02 03:01:04;;;;;;;64.53;26.35;;;;;;;-1.01;97.96;98096.47;5000157;28;20446;-85
2020/12/02 03:03:31;;;;;;;63.63;24.60;;;;;;;-0.99;97.22;98109.63;4999768;28;20508;-84
2020/12/02 03:05:57;;;;;;;61.20;24.52;;;;;;;-1.05;97.36;98093.91;5015773;28;20029;-84
2020/12/02 03:08:30;;;;;;;63.70;24.58;;;;;;;-1.14;97.05;98081.72;5001682;28;20040;-86
2020/12/02 03:10:57;;;;;;;63.92;24.50;;;;;;;-0.95;96.89;98114.81;4999642;28;20125;-85
2020/12/02 03:13:29;;;;;;;60.90;23.10;;;;;;;-1.06;96.29;98108.78;4997295;28;20037;-85
2020/12/02 03:15:54;;;;;;;67.47;23.13;;;;;;;-1.31;96.97;98100.22;5033916;28;20033;-85
2020/12/02 03:18:20;;;;;;;67.32;22.98;;;;;;;-1.38;97.19;98105.47;5000029;28;20033;-84
2020/12/02 03:20:55;;;;;;;64.20;23.63;;;;;;;-1.40;96.78;98112.50;4999607;28;20092;-85
2020/12/02 03:23:20;;;;;;;68.55;24.98;;;;;;;-1.33;97.63;98108.97;5000341;28;20178;-84
2020/12/02 03:25:46;;;;;;;62.65;24.17;;;;;;;-1.35;96.82;98101.09;4999518;28;20490;-85
2020/12/02 03:28:12;;;;;;;64.00;26.00;;;;;;;-1.21;96.82;98114.13;4996266;28;20049;-85
2020/12/02 03:30:38;;;;;;;85.93;25.17;;;;;;;-1.24;96.80;98107.16;4996079;28;20033;-85
2020/12/02 03:33:05;;;;;;;72.32;25.67;;;;;;;-1.17;96.16;98110.63;4996122;28;20026;-85
2020/12/02 03:35:31;;;;;;;72.50;26.33;;;;;;;-1.10;94.96;98107.06;4996341;28;20187;-85
2020/12/02 03:37:57;;;;;;;67.15;24.42;;;;;;;-1.16;95.28;98107.09;4996032;28;20022;-85
2020/12/02 03:40:22;;;;;;;82.68;28.70;;;;;;;-1.03;94.42;98116.63;4995479;28;20460;-85
2020/12/02 03:42:48;;;;;;;67.93;26.05;;;;;;;-1.18;95.73;98106.25;4995970;28;20033;-86
2020/12/02 03:45:14;;;;;;;70.10;25.95;;;;;;;-1.06;96.65;98115.78;4996009;28;20060;-85
2020/12/02 03:47:40;;;;;;;67.18;24.25;;;;;;;-1.11;96.44;98105.34;5011648;28;20030;-85
2020/12/02 03:50:09;;;;;;;64.05;24.35;;;;;;;-0.99;96.07;98114.88;4995973;28;20040;-86
2020/12/02 03:52:35;;;;;;;62.85;24.08;;;;;;;-1.09;96.42;98108.81;5011879;28;20545;-85
2020/12/02 03:55:01;;;;;;;64.15;24.17;;;;;;;-1.15;96.79;98109.72;5012326;28;20037;-85
2020/12/02 03:57:27;;;;;;;69.35;24.50;;;;;;;-1.04;95.51;98107.00;4995844;28;20038;-85
2020/12/02 03:59:52;;;;;;;71.93;25.50;;;;;;;-1.14;94.87;98105.34;5012685;28;20064;-85
2020/12/02 04:02:18;;;;;;;78.65;28.70;;;;;;;-1.17;95.34;98108.84;5011993;28;20028;-85
2020/12/02 04:04:43;;;;;;;61.63;21.58;;;;;;;-1.10;95.39;98117.56;4995376;28;20030;-85
2020/12/02 04:07:09;;;;;;;59.55;21.95;;;;;;;-1.12;94.51;98112.34;5012563;28;20403;-85
2020/12/02 04:09:35;;;;;;;68.03;23.80;;;;;;;-1.26;95.84;98111.53;4995395;28;20026;-85
2020/12/02 04:12:00;;;;;;;60.22;21.90;;;;;;;-1.22;93.62;98120.25;4995587;28;20144;-85
2020/12/02 04:14:26;;;;;;;61.88;21.80;;;;;;;-1.42;92.57;98109.91;4995647;28;20112;-85
2020/12/02 04:16:52;;;;;;;57.17;20.90;;;;;;;-1.39;93.93;98119.50;4995915;28;20037;-85
2020/12/02 04:19:17;;;;;;;69.40;24.58;;;;;;;-1.39;94.03;98116.88;5011193;28;20033;-85
2020/12/02 04:21:43;;;;;;;56.05;21.13;;;;;;;-1.40;94.34;98117.75;4994987;28;20037;-85
2020/12/02 04:24:08;;;;;;;54.50;20.90;;;;;;;-1.42;94.10;98125.66;5011815;28;20136;-85
2020/12/02 04:26:34;;;;;;;53.92;20.85;;;;;;;-1.45;94.34;98120.41;4995133;28;20050;-85
2020/12/02 04:29:00;;;;;;;61.00;22.83;;;;;;;-1.52;94.08;98120.44;4981568;28;20117;-85
2020/12/02 04:31:25;;;;;;;63.95;23.05;;;;;;;-1.66;94.44;98105.66;4988639;28;20472;-85
2020/12/02 04:33:51;;;;;;;59.97;22.48;;;;;;;-1.65;94.70;98099.53;4996110;28;20544;-85
2020/12/02 04:36:17;;;;;;;58.58;23.23;;;;;;;-1.66;95.95;98110.88;4996061;28;20061;-85
2020/12/02 04:38:42;;;;;;;48.85;18.38;;;;;;;-1.66;94.17;98112.63;5010365;28;20044;-86
2020/12/02 04:41:12;;;;;;;59.10;20.02;;;;;;;-1.76;94.23;98108.34;4990424;28;20056;-84
2020/12/02 04:43:40;;;;;;;61.55;22.45;;;;;;;-1.85;95.08;98098.78;4996183;28;20029;-88
2020/12/02 04:46:15;;;;;;;68.70;25.63;;;;;;;-1.77;95.12;98112.72;4987721;28;20040;-86
2020/12/02 04:48:43;;;;;;;65.65;22.33;;;;;;;-1.85;95.45;98108.38;4987878;28;20460;-85
2020/12/02 04:51:16;;;;;;;69.47;25.55;;;;;;;-1.77;95.70;98112.72;4987984;28;20047;-84
2020/12/02 04:53:44;;;;;;;80.78;30.40;;;;;;;-1.81;95.89;98110.97;4994341;28;20029;-85
2020/12/02 04:56:10;;;;;;;81.43;29.90;;;;;;;-1.77;96.34;98106.59;4992602;28;20081;-86
2020/12/02 04:58:38;;;;;;;70.43;26.15;;;;;;;-1.66;95.54;98113.50;4992336;28;20018;-85
2020/12/02 05:01:31;;;;;;;71.80;26.40;;;;;;;-1.73;96.09;98119.69;4984650;28;20029;-85
2020/12/02 05:03:57;;;;;;;59.00;20.13;;;;;;;-1.70;96.64;98127.53;4972677;28;20030;-84
2020/12/02 05:06:29;;;;;;;54.03;20.90;;;;;;;-1.86;96.66;98107.50;4992589;28;20497;-88
2020/12/02 05:09:12;;;;;;;60.58;21.58;;;;;;;-1.89;97.82;98133.72;5011283;28;20037;-86
2020/12/02 05:11:40;;;;;;;77.70;24.08;;;;;;;-1.92;98.83;98117.13;5003852;28;20040;-86
2020/12/02 05:14:12;;;;;;;65.75;21.90;;;;;;;-1.83;99.19;98132.81;4991639;28;20026;-86
2020/12/02 05:16:38;;;;;;;58.28;21.52;;;;;;;-1.89;96.18;98123.25;4992822;28;20064;-85
2020/12/02 05:19:14;;;;;;;57.60;20.73;;;;;;;-1.84;96.02;98131.06;4992401;28;20058;-85
2020/12/02 05:21:41;;;;;;;60.45;21.25;;;;;;;-2.05;96.72;98111.06;4976187;28;20521;-85
2020/12/02 05:24:15;;;;;;;83.07;25.42;;;;;;;-1.93;96.56;98131.97;4992853;28;20034;-85
2020/12/02 05:26:47;;;;;;;57.38;21.17;;;;;;;-1.97;96.43;98122.38;4982058;28;20054;-85
2020/12/02 05:29:44;;;;;;;44.97;16.33;;;;;;;-2.02;96.57;98128.50;4995675;28;20117;-85
2020/12/02 05:32:20;;;;;;;70.45;24.10;;;;;;;-1.99;97.91;98121.53;4997761;28;20503;-85
2020/12/02 05:34:46;;;;;;;73.00;25.40;;;;;;;-1.95;97.34;98125.88;5014846;28;20041;-84
2020/12/02 05:37:18;;;;;;;72.28;25.50;;;;;;;-1.88;97.21;98130.25;5015350;28;20084;-86
2020/12/02 05:39:50;;;;;;;66.10;24.00;;;;;;;-1.92;98.91;98128.50;4998270;28;20121;-84
2020/12/02 05:42:31;;;;;;;;;;;;;;;-1.92;98.48;98131.13;4999169;28;20485;-85
2020/12/02 05:45:14;;;;;;;74.03;27.88;;;;;;;-1.93;98.46;98123.25;5015111;28;19917;-86
2020/12/02 05:47:39;;;;;;;;;;;;;;;-1.78;98.83;98138.91;4998940;28;20025;-86
2020/12/02 05:50:09;;;;;;;74.28;30.38;;;;;;;-1.79;99.16;98138.06;4998489;28;19916;-86
2020/12/02 05:52:40;;;;;;;77.97;28.98;;;;;;;-1.81;98.57;98142.41;4995483;28;20034;-86
2020/12/02 05:55:09;;;;;;;72.72;24.52;;;;;;;-1.74;97.21;98144.16;4998663;28;20022;-86
2020/12/02 05:57:39;;;;;;;63.78;22.67;;;;;;;-1.76;96.43;98148.53;5014402;28;20021;-86
2020/12/02 06:00:06;;;;;;;69.32;25.55;;;;;;;-1.75;96.05;98150.25;5014218;28;20467;-86
2020/12/02 06:02:32;;;;;;;103.75;37.17;;;;;;;-1.88;96.77;98132.84;4998281;28;20026;-86
2020/12/02 06:04:58;;;;;;;76.38;28.98;;;;;;;-1.89;96.94;98153.81;4998642;28;20036;-85
2020/12/02 06:07:23;;;;;;;75.43;30.25;;;;;;;-1.90;97.68;98152.06;4999423;28;20025;-85
2020/12/02 06:09:51;;;;;;;82.53;29.33;;;;;;;-1.85;97.20;98166.03;4998751;28;20168;-84
2020/12/02 06:12:25;;;;;;;77.15;27.60;;;;;;;-1.85;96.18;98151.19;5016596;28;20069;-85
2020/12/02 06:15:06;;;;;;;66.40;23.30;;;;;;;-1.83;95.06;98166.91;4999510;28;20553;-85
2020/12/02 06:17:43;;;;;;;90.57;30.90;;;;;;;-1.95;95.67;98154.72;4998509;28;20029;-86
2020/12/02 06:20:27;;;;;;;;;;;;;;;;;;;;;
2020/12/02 06:23:14;;;;;;;70.50;25.52;;;;;;;-2.05;95.68;98142.50;5015387;28;20117;-87
2020/12/02 06:26:06;;;;;;;;;;;;;;;;;;;;;
2020/12/02 06:28:43;;;;;;;49.65;18.90;;;;;;;-2.14;94.96;98188.81;5015659;28;20025;-86
2020/12/02 06:32:08;;;;;;;56.78;21.10;;;;;;;-2.57;95.51;98112.06;5015402;28;20104;-86
2020/12/02 06:35:15;;;;;;;;;;;;;;;;;;;;;
2020/12/02 06:38:20;;;;;;;67.15;23.73;;;;;;;-2.47;95.50;98153.09;5016422;28;20026;-85
2020/12/02 06:40:58;;;;;;;66.32;23.75;;;;;;;-2.17;95.03;98189.69;5010528;28;20493;-87
2020/12/02 06:43:25;;;;;;;79.03;31.10;;;;;;;-2.21;95.25;98165.25;4999448;28;20026;-88
2020/12/02 06:46:23;;;;;;;81.40;30.85;;;;;;;-2.01;95.83;98186.19;4990328;28;20401;-88
2020/12/02 06:49:04;;;;;;;;;;;;;;;;;;;;;
2020/12/02 06:51:47;;;;;;;55.58;21.55;;;;;;;-1.78;95.15;98171.25;5013378;28;20405;-86
2020/12/02 06:54:39;;;;;;;79.85;28.55;;;;;;;-1.90;95.38;98147.69;5017079;28;20033;-89
2020/12/02 07:00:57;;;;;;;78.50;30.08;;;;;;;-1.69;92.89;98129.25;4976655;28;20091;-85
2020/12/02 07:03:35;;;;;;;63.58;23.30;;;;;;;-1.70;92.63;98150.25;4997240;28;20029;-86
2020/12/02 07:06:09;;;;;;;77.30;30.25;;;;;;;-1.34;92.96;98183.31;5014644;28;20049;-84
2020/12/02 07:08:49;;;;;;;78.80;30.83;;;;;;;-1.46;92.77;98170.25;5011448;28;20033;-86
2020/12/02 07:12:02;;;;;;;84.75;30.17;;;;;;;-1.12;91.41;98191.06;4999917;28;20030;-85
2020/12/02 07:14:49;;;;;;;72.90;25.08;;;;;;;-1.48;90.07;98120.44;4994084;28;20034;-86
2020/12/02 07:17:15;;;;;;;75.03;27.13;;;;;;;-1.56;90.54;98100.34;5009289;28;20041;-86
2020/12/02 07:19:50;;;;;;;84.45;31.58;;;;;;;-1.19;89.51;98128.09;4997602;28;20045;-86
2020/12/02 07:22:22;;;;;;;79.68;26.27;;;;;;;-0.85;89.69;98179.50;4995627;28;20076;-86
2020/12/02 07:24:59;;;;;;;70.90;25.25;;;;;;;-1.13;90.51;98164.81;5012814;28;20463;-87
2020/12/02 07:27:50;;;;;;;88.32;30.02;;;;;;;-1.27;91.50;98198.13;5001264;28;21206;-85
2020/12/02 07:30:29;;;;;;;100.10;34.67;;;;;;;-1.55;93.37;98204.38;4977662;28;20050;-87
2020/12/02 07:33:43;;;;;;;92.93;33.10;;;;;;;-1.62;94.39;98158.94;4979657;28;20046;-87
2020/12/02 07:39:09;;;;;;;98.45;38.60;;;;;;;-1.23;93.28;98168.41;4996261;28;20407;-78
2020/12/02 07:41:48;;;;;;;84.75;31.33;;;;;;;-1.31;91.53;98151.81;4987016;28;20030;-78
2020/12/02 07:47:18;;;;;;;77.78;26.52;;;;;;;-1.36;90.20;98122.09;4978766;28;20041;-87
2020/12/02 07:50:18;;;;;;;75.75;25.08;;;;;;;-1.30;89.47;98127.31;4987685;28;20026;-87
2020/12/02 07:53:04;;;;;;;71.20;25.58;;;;;;;-1.10;89.46;98170.03;4966854;28;20197;-86
2020/12/02 07:55:39;;;;;;;98.22;36.53;;;;;;;-0.67;90.36;98208.25;4991137;28;20497;-87
2020/12/02 07:58:06;;;;;;;80.85;27.73;;;;;;;-0.87;89.49;98190.91;4990970;28;20033;-87
2020/12/02 08:00:31;;;;;;;73.43;26.63;;;;;;;-0.95;90.98;98201.44;4990985;28;20037;-86
2020/12/02 08:02:57;;;;;;;74.78;26.92;;;;;;;-0.85;89.57;98208.38;4991230;28;20034;-87
2020/12/02 08:05:28;;;;;;;79.38;27.60;;;;;;;-0.77;89.39;98205.72;4977948;28;20034;-88
2020/12/02 08:08:00;;;;;;;51.83;19.58;;;;;;;-0.77;89.71;98209.19;4994982;28;20045;-86
2020/12/02 08:10:32;;;;;;;77.30;26.90;;;;;;;-0.79;88.69;98208.34;4992086;28;20057;-87
2020/12/02 08:13:18;;;;;;;81.15;30.83;;;;;;;-0.80;89.12;98190.00;4972024;28;20038;-86
2020/12/02 08:16:31;;;;;;;72.72;26.02;;;;;;;-0.81;88.76;98209.25;4980841;28;20034;-86
2020/12/02 08:19:05;;;;;;;55.23;18.60;;;;;;;-0.85;87.72;98163.75;4987250;28;20069;-87
2020/12/02 08:21:51;;;;;;;;;;;;;;;;;;;;;
2020/12/02 08:27:51;;;;;;;77.53;28.45;;;;;;;-0.62;87.96;98224.88;4908998;29;20444;-86
2020/12/02 08:30:23;;;;;;;80.90;27.23;;;;;;;-0.90;89.79;98190.94;4993572;28;20509;-89
2020/12/02 08:32:55;;;;;;;76.90;28.38;;;;;;;-0.49;88.12;98216.91;4993774;28;20495;-87
2020/12/02 08:35:35;;;;;;;;;;;;;;;-0.77;87.39;98211.81;4994456;28;20061;-85
2020/12/02 08:38:01;;;;;;;85.88;28.73;;;;;;;-1.06;88.27;98129.78;4999970;28;19921;-86
2020/12/02 08:40:47;;;;;;;85.00;27.70;;;;;;;-0.33;87.84;98216.75;4997536;28;20026;-88
2020/12/02 08:43:36;;;;;;;88.97;30.95;;;;;;;-0.32;85.91;98184.34;5012168;28;20049;-87
2020/12/02 08:46:33;;;;;;;90.75;31.50;;;;;;;-0.04;85.08;98221.75;5008447;28;20045;-87
2020/12/02 08:49:15;;;;;;;81.05;29.83;;;;;;;-0.18;84.81;98163.16;4991389;28;20037;-76
2020/12/02 08:52:26;;;;;;;86.78;30.00;;;;;;;-0.07;85.61;98221.78;4994146;28;20046;-84
2020/12/02 08:55:42;;;;;;;91.38;34.08;;;;;;;-0.24;86.04;98210.53;4943961;28;20030;-88
2020/12/02 09:01:06;;;;;;;92.10;32.60;;;;;;;-0.20;85.44;98147.44;4951948;28;20031;-87
2020/12/02 09:03:32;;;;;;;127.90;44.45;;;;;;;0.13;83.71;98203.16;4951132;28;20026;-86
2020/12/02 09:05:57;;;;;;;107.80;37.90;;;;;;;0.34;83.66;98202.97;4979308;28;20060;-86
2020/12/02 09:08:23;;;;;;;89.38;34.63;;;;;;;0.49;83.03;98203.63;4998291;28;20052;-87
2020/12/02 09:10:49;;;;;;;102.55;36.95;;;;;;;-0.05;83.47;98194.59;4998188;28;20037;-86
2020/12/02 09:13:14;;;;;;;105.68;36.75;;;;;;;-0.16;84.18;98185.06;5014349;28;20031;-87
2020/12/02 09:15:40;;;;;;;109.40;42.10;;;;;;;0.06;85.29;98197.13;4998021;28;20033;-86
2020/12/02 09:18:06;;;;;;;105.38;38.53;;;;;;;0.26;83.64;98189.88;4997528;28;20033;-87
2020/12/02 09:20:31;;;;;;;112.88;41.35;;;;;;;0.38;81.66;98187.09;4998700;28;20076;-86
2020/12/02 09:22:57;;;;;;;120.82;43.38;;;;;;;0.42;81.79;98191.47;4999151;28;20049;-85
2020/12/02 09:25:23;;;;;;;118.15;43.90;;;;;;;0.40;82.25;98187.09;4996588;28;20039;-85
2020/12/02 09:27:48;;;;;;;125.57;45.83;;;;;;;0.35;83.07;98179.25;4991132;28;20054;-85
2020/12/02 09:30:14;;;;;;;131.25;48.38;;;;;;;0.63;83.49;98184.19;4984200;28;20041;-86
2020/12/02 09:32:40;;;;;;;104.55;40.40;;;;;;;0.83;82.11;98177.75;4986606;28;20029;-86
2020/12/02 09:35:07;;;;;;;108.32;42.03;;;;;;;0.88;81.68;98170.69;4997749;28;20033;-86
2020/12/02 09:37:33;;;;;;;111.60;45.33;;;;;;;0.98;81.61;98163.53;4996633;28;20552;-86
2020/12/02 09:39:59;;;;;;;112.88;41.20;;;;;;;0.94;81.69;98161.81;4994206;28;20067;-86
2020/12/02 09:42:49;;;;;;;115.95;45.45;;;;;;;0.23;83.38;98179.41;4996733;28;20493;-86
2020/12/02 09:45:52;;;;;;;117.47;41.72;;;;;;;0.32;84.23;98168.75;5004032;28;20053;-84
2020/12/02 09:48:23;;;;;;;107.88;40.95;;;;;;;0.23;84.23;98168.88;4990526;28;20624;-86
2020/12/02 09:50:49;;;;;;;115.65;42.83;;;;;;;0.24;84.43;98168.00;4998991;28;20421;-86
2020/12/02 09:53:27;;;;;;;103.68;37.55;;;;;;;0.14;84.93;98158.47;4995648;28;20053;-86
2020/12/02 09:55:53;;;;;;;96.00;34.80;;;;;;;0.14;86.36;98147.94;4975684;28;20029;-85
2020/12/02 09:58:20;;;;;;;114.53;40.28;;;;;;;0.29;86.42;98152.13;5009758;28;20034;-85
2020/12/02 10:00:46;;;;;;;125.75;48.58;;;;;;;0.47;85.86;98141.41;4999783;28;20069;-86
2020/12/02 10:03:15;;;;;;;105.10;37.75;;;;;;;0.68;83.82;98150.78;4982836;28;20510;-86
2020/12/02 10:05:52;;;;;;;128.82;47.67;;;;;;;0.89;83.59;98142.59;4999513;28;20474;-86
2020/12/02 10:08:55;;;;;;;134.90;50.80;;;;;;;0.93;82.39;98117.94;5007157;28;20018;-87
2020/12/02 10:11:35;;;;;;;125.65;46.25;;;;;;;0.76;82.30;98117.31;5009238;28;20037;-85
2020/12/02 10:14:28;;;;;;;119.50;47.15;;;;;;;1.02;82.16;98128.34;4981277;28;20046;-87
2020/12/02 10:17:29;;;;;;;116.00;42.35;;;;;;;0.85;83.40;98128.59;5004508;28;20026;-86
2020/12/02 10:20:13;;;;;;;111.72;40.03;;;;;;;0.61;82.13;98128.94;4998875;28;20046;-86
2020/12/02 10:22:50;;;;;;;116.43;40.55;;;;;;;0.37;84.03;98121.38;5000264;28;20042;-85
2020/12/02 10:25:38;;;;;;;119.65;43.10;;;;;;;0.60;84.25;98123.69;4985402;28;20030;-87
2020/12/02 10:28:22;;;;;;;119.60;42.83;;;;;;;0.28;84.58;98097.78;4994397;28;20058;-87
2020/12/02 10:31:19;;;;;;;120.72;40.78;;;;;;;0.54;83.92;98107.09;5012148;28;20505;-86
2020/12/02 10:34:02;;;;;;;105.82;40.58;;;;;;;0.88;83.46;98112.75;4996037;28;20096;-86
2020/12/02 10:36:36;;;;;;;136.25;45.42;;;;;;;0.23;84.83;98108.38;4992014;28;20064;-87
2020/12/02 10:39:08;;;;;;;128.75;47.20;;;;;;;0.64;83.37;98092.06;4998766;28;20061;-86
2020/12/02 10:41:55;;;;;;;128.27;47.05;;;;;;;1.01;82.82;98093.25;4999645;28;20025;-85
2020/12/02 10:44:59;;;;;;;127.18;47.08;;;;;;;1.24;81.47;98090.22;4999039;28;20092;-86
2020/12/02 10:47:33;;;;;;;134.90;49.45;;;;;;;1.35;79.88;98080.41;5014851;28;20034;-85
2020/12/02 10:50:00;;;;;;;153.27;54.80;;;;;;;0.95;79.07;98081.94;5016465;28;20033;-86
2020/12/02 10:52:25;;;;;;;152.13;51.55;;;;;;;0.59;81.78;98074.56;4998907;28;20033;-85
2020/12/02 10:54:53;;;;;;;146.35;51.83;;;;;;;0.51;82.32;98074.69;4997864;28;20492;-85
2020/12/02 10:57:21;;;;;;;208.25;80.47;;;;;;;0.13;84.94;98077.81;5014674;28;20068;-85
2020/12/02 10:59:53;;;;;;;166.85;57.38;;;;;;;-0.13;87.11;98040.47;5001541;28;20045;-86
2020/12/02 11:02:22;;;;;;;145.95;51.58;;;;;;;0.23;87.17;98068.06;5000629;28;20040;-85
2020/12/02 11:04:48;;;;;;;133.45;48.03;;;;;;;0.42;87.53;98064.28;5001544;28;20025;-85
2020/12/02 11:07:29;;;;;;;136.43;48.78;;;;;;;0.98;83.79;98077.50;5002363;28;20026;-85
2020/12/02 11:10:02;;;;;;;150.52;55.70;;;;;;;1.22;82.03;98065.69;5018446;28;20060;-84
2020/12/02 11:12:50;;;;;;;130.13;50.08;;;;;;;1.52;80.88;98080.97;5001460;28;20034;-85
2020/12/02 11:15:45;;;;;;;122.15;44.58;;;;;;;1.40;80.44;98075.91;5013705;28;20036;-86
2020/12/02 11:18:20;;;;;;;112.40;41.17;;;;;;;0.86;81.78;98061.88;5000388;28;20033;-87
2020/12/02 11:20:46;;;;;;;115.03;42.72;;;;;;;0.81;83.31;98076.00;5017193;28;20057;-85
2020/12/02 11:23:35;;;;;;;112.88;42.03;;;;;;;0.77;83.83;98064.63;5015759;28;20512;-86
2020/12/02 11:26:14;;;;;;;120.47;42.40;;;;;;;0.59;84.58;98064.91;5014499;28;20036;-85
2020/12/02 11:28:41;;;;;;;116.97;41.92;;;;;;;0.58;83.80;98064.94;4999320;28;20057;-85
2020/12/02 11:31:46;;;;;;;102.93;37.55;;;;;;;0.81;82.84;98071.59;4976918;28;20030;-86
2020/12/02 11:34:33;;;;;;;120.57;42.00;;;;;;;0.67;84.33;98070.94;5008969;28;20497;-85
2020/12/02 11:37:15;;;;;;;112.85;40.95;;;;;;;0.45;84.90;98064.25;5001149;28;20046;-86
2020/12/02 11:39:53;;;;;;;119.85;42.40;;;;;;;0.58;84.22;98064.94;4998889;28;20041;-86
2020/12/02 11:42:48;;;;;;;119.80;43.05;;;;;;;1.00;85.12;98059.91;5000318;28;20038;-85
2020/12/02 11:45:21;;;;;;;119.60;43.92;;;;;;;1.42;80.62;98074.09;5008721;28;20034;-85
2020/12/02 11:48:08;;;;;;;153.45;48.85;;;;;;;1.09;80.89;98059.75;4991199;28;20022;-87
2020/12/02 11:50:53;;;;;;;138.95;48.60;;;;;;;1.09;82.28;98064.13;5006831;28;20026;-86
2020/12/02 11:53:44;;;;;;;181.57;66.20;;;;;;;1.76;80.54;98058.53;4987113;28;20497;-84
2020/12/02 11:56:22;;;;;;;162.80;53.13;;;;;;;1.93;78.63;98066.16;4990230;28;20092;-85
2020/12/02 11:58:59;;;;;;;145.95;50.40;;;;;;;2.03;78.12;98051.88;4999777;28;20034;-85
2020/12/02 12:02:08;;;;;;;142.40;51.65;;;;;;;2.20;77.02;98055.03;4991582;28;20462;-85
2020/12/02 12:04:34;;;;;;;167.18;60.33;;;;;;;2.23;77.35;98060.25;4953072;29;20039;-85
2020/12/02 12:07:09;;;;;;;166.02;58.10;;;;;;;2.50;77.61;98048.22;5010849;28;20518;-86
2020/12/02 12:09:39;;;;;;;136.10;53.35;;;;;;;2.83;75.71;98052.72;4989445;28;20045;-85
2020/12/02 12:12:29;;;;;;;155.10;54.85;;;;;;;1.85;76.51;98042.53;4987399;28;20184;-85
2020/12/02 12:15:22;;;;;;;146.40;55.33;;;;;;;1.75;78.99;98026.94;4994326;28;20093;-87